createdAt,value
2019-01-16T00:01:43.829Z,98930.62
2019-01-16T00:04:22.823Z,98929.69
2019-01-16T00:06:58.281Z,98924.51
2019-01-16T00:09:30.962Z,98922.59
2019-01-16T00:12:12.513Z,98918.36
2019-01-16T00:14:48.313Z,98922.00
2019-01-16T00:17:33.700Z,98916.44
2019-01-16T00:20:04.399Z,98920.08
2019-01-16T00:22:52.809Z,98918.03
2019-01-16T00:25:39.053Z,98912.50
2019-01-16T00:28:17.733Z,98907.55
2019-01-16T00:31:02.773Z,98902.38
2019-01-16T00:33:32.787Z,98898.52
2019-01-16T00:36:02.824Z,98902.25
2019-01-16T00:38:32.843Z,98902.86
2019-01-16T00:41:17.874Z,98900.81
2019-01-16T00:43:59.839Z,98900.09
2019-01-16T00:46:47.801Z,98901.06
2019-01-16T00:49:23.227Z,98894.69
2019-01-16T00:52:10.982Z,98887.81
2019-01-16T00:54:52.514Z,98885.63
2019-01-16T00:57:25.088Z,98882.29
2019-01-16T01:00:11.135Z,98882.76
2019-01-16T01:02:57.282Z,98884.56
2019-01-16T01:05:32.726Z,98879.04
2019-01-16T01:08:17.796Z,98887.95
2019-01-16T01:10:50.708Z,98879.27
2019-01-16T01:13:26.682Z,98883.02
2019-01-16T01:16:11.724Z,98879.65
2019-01-16T01:18:58.237Z,98880.63
2019-01-16T01:21:37.181Z,98884.36
2019-01-16T01:24:07.218Z,98879.18
2019-01-16T01:26:37.240Z,98877.64
2019-01-16T01:29:09.759Z,98881.23
2019-01-16T01:31:48.597Z,98879.91
2019-01-16T01:34:34.561Z,98877.04
2019-01-16T01:37:20.024Z,98873.53
2019-01-16T01:39:52.704Z,98871.48
2019-01-16T01:42:38.922Z,98873.92
2019-01-16T01:45:10.884Z,98870.03
2019-01-16T01:47:40.901Z,98873.32
2019-01-16T01:50:26.345Z,98870.16
2019-01-16T01:52:56.363Z,98868.97
2019-01-16T01:55:28.811Z,98864.39
2019-01-16T01:57:58.830Z,98871.02
2019-01-16T02:00:45.409Z,98873.32
2019-01-16T02:03:15.436Z,98870.32
2019-01-16T02:05:48.180Z,98865.63
2019-01-16T02:08:34.739Z,98866.57
2019-01-16T02:11:11.479Z,98875.13
2019-01-16T02:13:47.458Z,98867.30
2019-01-16T02:16:33.746Z,98869.12
2019-01-16T02:19:15.440Z,98866.09
2019-01-16T02:21:57.015Z,98865.02
2019-01-16T02:24:35.849Z,98862.50
2019-01-16T02:27:22.343Z,98866.13
2019-01-16T02:32:39.962Z,98859.38
2019-01-16T02:35:25.974Z,98861.17
2019-01-16T02:37:58.914Z,98855.11
2019-01-16T02:40:28.935Z,98857.41
2019-01-16T02:43:02.016Z,98857.89
2019-01-16T02:45:41.583Z,98852.23
2019-01-16T02:48:11.597Z,98851.04
2019-01-16T02:50:44.560Z,98848.98
2019-01-16T02:53:23.392Z,98847.31
2019-01-16T02:55:59.354Z,98846.08
2019-01-16T02:58:29.379Z,98839.58
2019-01-16T03:01:05.127Z,98844.53
2019-01-16T03:03:36.029Z,98837.56
2019-01-16T03:06:06.199Z,98832.35
2019-01-16T03:08:38.626Z,98837.31
2019-01-16T03:11:20.503Z,98823.20
2019-01-16T03:13:53.580Z,98820.20
2019-01-16T03:16:41.712Z,98815.03
2019-01-16T03:19:28.188Z,98812.00
2019-01-16T03:22:07.142Z,98811.41
2019-01-16T03:24:52.496Z,98809.73
2019-01-16T03:27:25.188Z,98809.00
2019-01-16T03:30:01.119Z,98803.95
2019-01-16T03:32:43.001Z,98801.44
2019-01-16T03:35:22.093Z,98796.61
2019-01-16T03:37:52.117Z,98785.28
2019-01-16T03:40:25.071Z,98792.76
2019-01-16T03:42:58.085Z,98785.28
2019-01-16T03:45:28.218Z,98781.94
2019-01-16T03:48:03.929Z,98777.23
2019-01-16T03:50:45.663Z,98772.88
2019-01-16T03:53:34.305Z,98765.91
2019-01-16T03:56:06.745Z,98765.56
2019-01-16T03:58:36.757Z,98765.66
2019-01-16T04:01:18.587Z,98748.22
2019-01-16T04:04:00.590Z,98753.98
2019-01-16T04:06:30.773Z,98751.94
2019-01-16T04:09:17.079Z,98753.89
2019-01-16T04:11:49.593Z,98752.19
2019-01-16T04:14:25.892Z,98748.22
2019-01-16T04:16:55.902Z,98748.47
2019-01-16T04:19:25.910Z,98739.20
2019-01-16T04:21:58.876Z,98745.56
2019-01-16T04:24:31.932Z,98736.30
2019-01-16T04:27:01.973Z,98739.92
2019-01-16T04:29:46.747Z,98727.66
2019-01-16T04:32:25.602Z,98730.43
2019-01-16T04:35:04.461Z,98721.25
2019-01-16T04:37:40.307Z,98723.08
2019-01-16T04:40:10.654Z,98712.23
2019-01-16T04:42:40.677Z,98711.89
2019-01-16T04:45:22.962Z,98714.53
2019-01-16T04:48:09.405Z,98711.51
2019-01-16T04:50:48.402Z,98717.78
2019-01-16T04:53:18.417Z,98714.41
2019-01-16T04:55:48.434Z,98708.89
2019-01-16T04:58:24.661Z,98708.39
2019-01-16T05:00:54.645Z,98709.48
2019-01-16T05:03:33.122Z,98704.66
2019-01-16T05:06:15.319Z,98700.31
2019-01-16T05:08:48.358Z,98697.79
2019-01-16T05:11:27.402Z,98693.44
2019-01-16T05:14:06.445Z,98686.00
2019-01-16T05:16:46.176Z,98684.77
2019-01-16T05:19:38.651Z,98688.40
2019-01-16T05:22:08.960Z,98681.30
2019-01-16T05:24:41.757Z,98676.36
2019-01-16T05:27:14.505Z,98669.27
2019-01-16T05:29:49.967Z,98674.43
2019-01-16T05:32:22.615Z,98675.41
2019-01-16T05:34:55.653Z,98672.38
2019-01-16T05:37:41.734Z,98667.09
2019-01-16T05:40:11.932Z,98658.33
2019-01-16T05:42:44.613Z,98660.97
2019-01-16T05:45:20.398Z,98658.80
2019-01-16T05:48:06.556Z,98655.80
2019-01-16T05:50:37.589Z,98651.71
2019-01-16T05:53:13.646Z,98650.61
2019-01-16T05:55:43.661Z,98646.29
2019-01-16T05:58:19.601Z,98641.00
2019-01-16T06:01:07.992Z,98644.97
2019-01-16T06:03:38.001Z,98632.70
2019-01-16T06:06:13.740Z,98630.53
2019-01-16T06:08:59.822Z,98634.38
2019-01-16T06:11:30.006Z,98637.15
2019-01-16T06:14:15.872Z,98637.27
2019-01-16T06:16:51.816Z,98638.22
2019-01-16T06:19:21.835Z,98639.67
2019-01-16T06:21:51.862Z,98640.64
2019-01-16T06:24:21.871Z,98633.65
2019-01-16T06:27:04.015Z,98643.77
2019-01-16T06:29:49.317Z,98644.61
2019-01-16T06:32:22.004Z,98630.78
2019-01-16T06:34:54.695Z,98631.76
2019-01-16T06:37:36.553Z,98628.38
2019-01-16T06:40:12.439Z,98629.70
2019-01-16T06:42:51.722Z,98628.00
2019-01-16T06:45:24.130Z,98628.98
2019-01-16T06:48:10.433Z,98628.63
2019-01-16T06:50:40.481Z,98627.31
2019-01-16T06:53:13.608Z,98632.61
2019-01-16T06:55:58.727Z,98642.21
2019-01-16T06:58:43.479Z,98628.13
2019-01-16T07:01:19.711Z,98635.34
2019-01-16T07:03:49.834Z,98629.70
2019-01-16T07:06:19.931Z,98636.79
2019-01-16T07:09:04.963Z,98633.33
2019-01-16T07:11:43.901Z,98632.95
2019-01-16T07:14:16.636Z,98625.98
2019-01-16T07:16:52.484Z,98623.94
2019-01-16T07:19:25.539Z,98622.01
2019-01-16T07:22:07.738Z,98624.78
2019-01-16T07:24:50.628Z,98625.03
2019-01-16T07:27:26.207Z,98626.82
2019-01-16T07:30:11.316Z,98622.63
2019-01-16T07:32:57.415Z,98620.58
2019-01-16T07:35:36.535Z,98614.44
2019-01-16T07:38:25.075Z,98609.39
2019-01-16T07:41:11.489Z,98607.09
2019-01-16T07:43:47.606Z,98617.31
2019-01-16T07:46:33.677Z,98617.09
2019-01-16T07:49:15.964Z,98618.89
2019-01-16T07:51:58.416Z,98620.92
2019-01-16T07:54:46.855Z,98629.11
2019-01-16T07:57:35.036Z,98638.48
2019-01-16T08:00:15.301Z,98624.66
2019-01-16T08:03:00.326Z,98615.49
2019-01-16T08:05:39.308Z,98616.08
2019-01-16T08:08:15.274Z,98615.09
2019-01-16T08:11:00.399Z,98619.44
2019-01-16T08:13:36.365Z,98626.99
2019-01-16T08:16:09.692Z,98627.97
2019-01-16T08:18:54.870Z,98623.73
2019-01-16T08:21:41.013Z,98621.59
2019-01-16T08:24:13.667Z,98621.34
2019-01-16T08:26:45.440Z,98613.66
2019-01-16T08:29:31.463Z,98625.55
2019-01-16T08:32:16.818Z,98624.34
2019-01-16T08:34:55.766Z,98633.34
2019-01-16T08:37:25.911Z,98645.73
2019-01-16T08:39:55.958Z,98638.39
2019-01-16T08:42:41.344Z,98641.89
2019-01-16T08:45:15.607Z,98628.80
2019-01-16T08:47:51.595Z,98630.70
2019-01-16T08:50:37.962Z,98637.78
2019-01-16T08:53:08.019Z,98638.25
2019-01-16T08:55:38.081Z,98640.16
2019-01-16T08:58:14.270Z,98636.32
2019-01-16T09:00:46.971Z,98632.86
2019-01-16T09:03:17.008Z,98629.83
2019-01-16T09:05:49.869Z,98632.59
2019-01-16T09:08:34.779Z,98631.75
2019-01-16T09:11:23.092Z,98628.28
2019-01-16T09:13:53.131Z,98620.59
2019-01-16T09:16:25.760Z,98613.14
2019-01-16T09:18:55.985Z,98619.36
2019-01-16T09:21:28.781Z,98605.80
2019-01-16T09:24:01.742Z,98605.45
2019-01-16T09:26:31.798Z,98603.16
2019-01-16T09:29:07.262Z,98598.93
2019-01-16T09:31:53.417Z,98602.08
2019-01-16T09:34:39.896Z,98607.59
2019-01-16T09:37:21.681Z,98603.25
2019-01-16T09:39:57.417Z,98610.45
2019-01-16T09:45:25.643Z,98603.48
2019-01-16T09:47:55.693Z,98600.11
2019-01-16T09:50:47.815Z,98600.50
2019-01-16T09:53:13.960Z,98605.40
2019-01-16T09:55:44.003Z,98599.39
2019-01-16T09:58:14.132Z,98601.09
2019-01-16T10:00:47.043Z,98595.54
2019-01-16T10:03:23.106Z,98600.36
2019-01-16T10:05:53.133Z,98596.05
2019-01-16T10:08:25.600Z,98588.59
2019-01-16T10:11:07.224Z,98587.73
2019-01-16T10:13:42.732Z,98576.81
2019-01-16T10:16:28.720Z,98568.04
2019-01-16T10:19:16.829Z,98563.23
2019-01-16T10:21:49.641Z,98544.86
2019-01-16T10:24:31.961Z,98554.22
2019-01-16T10:27:02.007Z,98552.55
2019-01-16T10:29:32.071Z,98544.13
2019-01-16T10:32:02.105Z,98539.94
2019-01-16T10:34:38.183Z,98537.17
2019-01-16T10:37:11.254Z,98527.92
2019-01-16T10:39:44.007Z,98527.45
2019-01-16T10:42:17.045Z,98525.75
2019-01-16T10:44:49.845Z,98519.27
2019-01-16T10:47:19.894Z,98516.28
2019-01-16T10:50:07.877Z,98513.64
2019-01-16T10:52:55.936Z,98504.02
2019-01-16T10:55:31.896Z,98506.66
2019-01-16T10:58:07.863Z,98499.70
2019-01-16T11:00:46.785Z,98498.50
2019-01-16T11:03:28.352Z,98505.57
2019-01-16T11:06:10.679Z,98506.89
2019-01-16T11:08:52.777Z,98496.80
2019-01-16T11:11:28.269Z,98492.61
2019-01-16T11:14:14.442Z,98496.57
2019-01-16T11:16:44.484Z,98484.80
2019-01-16T11:19:14.533Z,98483.48
2019-01-16T11:22:00.595Z,98479.99
2019-01-16T11:24:39.332Z,98475.19
2019-01-16T11:27:15.395Z,98473.86
2019-01-16T11:29:48.358Z,98467.77
2019-01-16T11:32:21.058Z,98471.34
2019-01-16T11:35:07.325Z,98463.30
2019-01-16T11:37:53.671Z,98457.66
2019-01-16T11:40:23.732Z,98451.19
2019-01-16T11:42:59.585Z,98441.65
2019-01-16T11:45:32.342Z,98437.98
2019-01-16T11:48:17.756Z,98432.92
2019-01-16T11:51:04.265Z,98416.61
2019-01-16T11:53:34.319Z,98419.27
2019-01-16T11:56:22.808Z,98411.95
2019-01-16T11:58:58.815Z,98403.77
2019-01-16T12:01:28.843Z,98399.22
2019-01-16T12:04:15.219Z,98396.92
2019-01-16T12:07:01.862Z,98386.11
2019-01-16T12:09:34.311Z,98381.55
2019-01-16T12:12:22.354Z,98384.92
2019-01-16T12:14:52.400Z,98389.61
2019-01-16T12:17:22.444Z,98378.44
2019-01-16T12:20:08.810Z,98372.53
2019-01-16T12:22:38.939Z,98374.45
2019-01-16T12:25:12.495Z,98373.00
2019-01-16T12:27:51.707Z,98366.77
2019-01-16T12:30:38.743Z,98365.58
2019-01-16T12:33:24.650Z,98351.98
2019-01-16T12:36:10.924Z,98341.55
2019-01-16T12:38:44.411Z,98332.04
2019-01-16T12:41:14.538Z,98323.98
2019-01-16T12:43:44.599Z,98319.89
2019-01-16T12:46:20.754Z,98320.48
2019-01-16T12:49:06.748Z,98325.89
2019-01-16T12:51:39.268Z,98305.94
2019-01-16T12:54:12.029Z,98310.50
2019-01-16T12:56:42.138Z,98303.84
2019-01-16T12:59:28.198Z,98304.81
2019-01-16T13:01:58.267Z,98291.20
2019-01-16T13:04:43.705Z,98286.78
2019-01-16T13:07:28.982Z,98274.83
2019-01-16T13:10:11.229Z,98266.40
2019-01-16T13:12:57.981Z,98255.67
2019-01-16T13:15:34.156Z,98248.05
2019-01-16T13:18:10.400Z,98245.11
2019-01-16T13:20:40.447Z,98236.02
2019-01-16T13:23:12.943Z,98230.30
2019-01-16T13:25:58.111Z,98216.41
2019-01-16T13:28:46.329Z,98216.59
2019-01-16T13:31:25.659Z,98209.69
2019-01-16T13:33:55.739Z,98213.34
2019-01-16T13:36:28.642Z,98214.69
2019-01-16T13:38:58.672Z,98216.02
2019-01-16T13:41:28.893Z,98218.72
2019-01-16T13:44:13.913Z,98226.81
2019-01-16T13:46:44.034Z,98226.82
2019-01-16T13:49:26.060Z,98219.86
2019-01-16T13:51:58.975Z,98210.28
2019-01-16T13:54:29.083Z,98198.72
2019-01-16T13:57:15.239Z,98195.37
2019-01-16T13:59:48.612Z,98192.72
2019-01-16T14:02:33.810Z,98175.83
2019-01-16T14:05:18.550Z,98163.38
2019-01-16T14:07:57.496Z,98164.97
2019-01-16T14:10:27.545Z,98167.73
2019-01-16T14:13:13.753Z,98163.56
2019-01-16T14:15:52.674Z,98160.54
2019-01-16T14:18:39.182Z,98155.85
2019-01-16T14:21:15.349Z,98144.64
2019-01-16T14:23:45.380Z,98140.91
2019-01-16T14:26:24.286Z,98139.67
2019-01-16T14:29:00.330Z,98136.93
2019-01-16T14:31:33.266Z,98130.20
2019-01-16T14:34:19.284Z,98127.30
2019-01-16T14:37:05.206Z,98129.56
2019-01-16T14:39:35.260Z,98126.75
2019-01-16T14:42:21.198Z,98117.48
2019-01-16T14:44:57.214Z,98117.47
2019-01-16T14:47:39.098Z,98122.55
2019-01-16T14:50:27.866Z,98118.54
2019-01-16T14:53:14.348Z,98112.02
2019-01-16T14:56:00.771Z,98113.50
2019-01-16T14:58:30.832Z,98102.84
2019-01-16T15:01:00.864Z,98098.10
2019-01-16T15:03:47.177Z,98089.69
2019-01-16T15:06:20.195Z,98090.26
2019-01-16T15:09:02.193Z,98093.16
2019-01-16T15:11:34.914Z,98094.20
2019-01-16T15:14:16.984Z,98091.61
2019-01-16T15:16:53.261Z,98080.17
2019-01-16T15:19:23.349Z,98067.22
2019-01-16T15:21:53.407Z,98063.08
2019-01-16T15:24:32.601Z,98071.61
2019-01-16T15:27:05.313Z,98070.46
2019-01-16T15:29:35.371Z,98062.50
2019-01-16T15:32:21.860Z,98064.83
2019-01-16T15:35:08.183Z,98061.64
2019-01-16T15:37:44.327Z,98053.33
2019-01-16T15:40:41.019Z,98044.33
2019-01-16T15:43:16.789Z,98044.52
2019-01-16T15:45:46.825Z,98034.87
2019-01-16T15:48:25.956Z,98029.19
2019-01-16T15:50:58.945Z,98031.85
2019-01-16T15:53:29.012Z,98030.69
2019-01-16T15:56:10.757Z,98029.19
2019-01-16T15:58:52.876Z,98023.02
2019-01-16T16:01:26.075Z,98024.52
2019-01-16T16:03:56.405Z,98010.88
2019-01-16T16:06:41.388Z,98015.04
2019-01-16T16:09:20.502Z,98000.03
2019-01-16T16:12:07.039Z,98005.88
2019-01-16T16:14:37.087Z,98001.70
2019-01-16T16:17:09.859Z,97999.88
2019-01-16T16:19:39.922Z,97991.39
2019-01-16T16:22:19.286Z,97985.88
2019-01-16T16:24:47.723Z,97982.55
2019-01-16T16:27:36.148Z,97983.23
2019-01-16T16:30:25.138Z,97982.39
2019-01-16T16:33:03.892Z,97965.55
2019-01-16T16:35:36.723Z,97954.06
2019-01-16T16:38:09.266Z,97955.39
2019-01-16T16:40:45.581Z,97960.06
2019-01-16T16:43:18.752Z,97955.58
2019-01-16T16:45:51.515Z,97952.75
2019-01-16T16:48:23.987Z,97950.41
2019-01-16T16:50:54.045Z,97949.27
2019-01-16T16:53:40.149Z,97946.92
2019-01-16T16:56:25.295Z,97936.63
2019-01-16T16:59:07.355Z,97933.61
2019-01-16T17:01:40.178Z,97933.61
2019-01-16T17:04:12.896Z,97931.43
2019-01-16T17:06:51.791Z,97926.63
2019-01-16T17:09:33.819Z,97931.11
2019-01-16T17:12:12.888Z,97929.45
2019-01-16T17:15:00.898Z,97931.93
2019-01-16T17:17:30.954Z,97928.59
2019-01-16T17:20:03.881Z,97923.60
2019-01-16T17:22:36.934Z,97921.78
2019-01-16T17:25:15.957Z,97915.95
2019-01-16T17:27:48.665Z,97901.64
2019-01-16T17:30:27.650Z,97905.63
2019-01-16T17:33:03.275Z,97900.30
2019-01-16T17:35:45.371Z,97911.42
2019-01-16T17:38:21.207Z,97904.62
2019-01-16T17:40:54.040Z,97896.97
2019-01-16T17:43:32.820Z,97896.29
2019-01-16T17:46:05.757Z,97902.10
2019-01-16T17:48:38.711Z,97907.61
2019-01-16T17:51:26.501Z,97903.29
2019-01-16T17:54:02.224Z,97899.13
2019-01-16T17:56:40.734Z,97888.63
2019-01-16T17:59:13.518Z,97894.31
2019-01-16T18:01:49.021Z,97889.49
2019-01-16T18:04:19.047Z,97888.97
2019-01-16T18:06:49.062Z,97880.83
2019-01-16T18:09:25.102Z,97896.64
2019-01-16T18:11:57.852Z,97882.66
2019-01-16T18:14:44.049Z,97886.64
2019-01-16T18:17:17.838Z,97883.83
2019-01-16T18:19:47.840Z,97884.30
2019-01-16T18:22:32.948Z,97884.30
2019-01-16T18:25:08.744Z,97886.15
2019-01-16T18:27:54.594Z,97883.98
2019-01-16T18:30:44.131Z,97879.81
2019-01-16T18:33:15.213Z,97882.16
2019-01-16T18:36:01.638Z,97886.97
2019-01-16T18:38:37.113Z,97893.46
2019-01-16T18:41:07.130Z,97884.82
2019-01-16T18:43:46.131Z,97883.32
2019-01-16T18:46:27.747Z,97882.33
2019-01-16T18:49:00.322Z,97879.48
2019-01-16T18:51:33.375Z,97883.16
2019-01-16T18:54:03.429Z,97885.33
2019-01-16T18:56:50.073Z,97879.64
2019-01-16T18:59:31.932Z,97880.66
2019-01-16T19:02:04.604Z,97874.98
2019-01-16T19:04:40.371Z,97869.15
2019-01-16T19:07:15.844Z,97860.00
2019-01-16T19:10:01.789Z,97872.98
2019-01-16T19:12:40.706Z,97869.84
2019-01-16T19:15:28.779Z,97881.46
2019-01-16T19:17:58.797Z,97868.67
2019-01-16T19:20:28.816Z,97863.13
2019-01-16T19:23:04.973Z,97866.50
2019-01-16T19:25:51.437Z,97876.98
2019-01-16T19:28:27.427Z,97872.31
2019-01-16T19:31:09.552Z,97872.31
2019-01-16T19:33:51.379Z,97869.16
2019-01-16T19:36:26.807Z,97870.33
2019-01-16T19:39:05.784Z,97861.01
2019-01-16T19:41:52.050Z,97837.37
2019-01-16T19:44:24.736Z,97836.88
2019-01-16T19:47:06.780Z,97856.84
2019-01-16T19:49:39.815Z,97855.70
2019-01-16T19:52:15.649Z,97849.53
2019-01-16T19:54:51.755Z,97849.05
2019-01-16T19:57:27.285Z,97847.85
2019-01-16T20:00:13.136Z,97855.34
2019-01-16T20:02:59.806Z,97846.20
2019-01-16T20:05:29.884Z,97839.39
2019-01-16T20:08:05.931Z,97845.69
2019-01-16T20:10:41.877Z,97853.81
2019-01-16T20:13:14.775Z,97848.98
2019-01-16T20:15:47.762Z,97842.17
2019-01-16T20:18:27.050Z,97841.82
2019-01-16T20:21:03.283Z,97836.17
2019-01-16T20:23:33.376Z,97839.00
2019-01-16T20:26:06.015Z,97839.83
2019-01-16T20:28:47.948Z,97834.19
2019-01-16T20:31:18.007Z,97829.00
2019-01-16T20:34:02.840Z,97825.83
2019-01-16T20:36:48.666Z,97824.66
2019-01-16T20:39:18.761Z,97805.05
2019-01-16T20:41:57.563Z,97790.91
2019-01-16T20:44:43.895Z,97800.70
2019-01-16T20:47:29.775Z,97797.05
2019-01-16T20:49:59.831Z,97798.72
2019-01-16T20:52:29.900Z,97802.03
2019-01-16T20:55:11.672Z,97800.03
2019-01-16T20:57:44.706Z,97798.55
2019-01-16T21:00:20.457Z,97784.73
2019-01-16T21:02:53.632Z,97807.52
2019-01-16T21:05:23.709Z,97798.50
2019-01-16T21:08:02.859Z,97794.67
2019-01-16T21:10:32.897Z,97786.02
2019-01-16T21:13:06.076Z,97784.19
2019-01-16T21:15:51.753Z,97787.00
2019-01-16T21:18:19.986Z,97779.36
2019-01-16T21:20:50.091Z,97782.84
2019-01-16T21:23:23.857Z,97785.66
2019-01-16T21:26:12.355Z,97777.69
2019-01-16T21:28:47.968Z,97760.03
2019-01-16T21:31:26.889Z,97760.36
2019-01-16T21:33:59.657Z,97760.84
2019-01-16T21:36:44.866Z,97756.34
2019-01-16T21:39:17.587Z,97758.33
2019-01-16T21:41:50.528Z,97749.70
2019-01-16T21:44:20.609Z,97753.50
2019-01-16T21:46:53.382Z,97751.02
2019-01-16T21:49:23.425Z,97739.70
2019-01-16T21:51:56.445Z,97748.33
2019-01-16T21:54:38.454Z,97741.04
2019-01-16T21:57:26.901Z,97730.37
2019-01-16T22:00:02.782Z,97731.20
2019-01-16T22:02:35.954Z,97728.52
2019-01-16T22:05:09.061Z,97727.34
2019-01-16T22:07:42.183Z,97734.64
2019-01-16T22:10:15.341Z,97730.02
2019-01-16T22:12:45.383Z,97731.15
2019-01-16T22:15:15.864Z,97734.13
2019-01-16T22:18:02.394Z,97735.63
2019-01-16T22:20:41.226Z,97729.31
2019-01-16T22:23:14.223Z,97731.28
2019-01-16T22:25:44.282Z,97733.07
2019-01-16T22:28:20.415Z,97731.42
2019-01-16T22:31:05.569Z,97737.03
2019-01-16T22:33:41.588Z,97733.31
2019-01-16T22:36:23.799Z,97733.94
2019-01-16T22:39:06.020Z,97726.27
2019-01-16T22:41:42.396Z,97727.24
2019-01-16T22:44:18.551Z,97729.84
2019-01-16T22:46:51.531Z,97727.02
2019-01-16T22:49:24.518Z,97719.38
2019-01-16T22:51:54.564Z,97714.19
2019-01-16T22:54:30.353Z,97715.00
2019-01-16T22:57:08.958Z,97717.82
2019-01-16T22:59:39.031Z,97715.00
2019-01-16T23:02:25.719Z,97711.34
2019-01-16T23:05:10.815Z,97707.16
2019-01-16T23:07:55.720Z,97712.31
2019-01-16T23:10:41.997Z,97707.29
2019-01-16T23:13:20.794Z,97701.98
2019-01-16T23:16:00.033Z,97688.19
2019-01-16T23:18:35.596Z,97691.65
2019-01-16T23:21:22.063Z,97695.79
2019-01-16T23:23:57.557Z,97689.48
2019-01-16T23:26:27.601Z,97680.47
2019-01-16T23:28:57.640Z,97689.11
2019-01-16T23:31:27.696Z,97678.14
2019-01-16T23:34:06.666Z,97671.67
2019-01-16T23:36:45.565Z,97667.52
2019-01-16T23:39:18.339Z,97667.65
2019-01-16T23:42:04.488Z,97666.16
2019-01-16T23:44:34.526Z,97662.14
2019-01-16T23:47:04.556Z,97658.32
2019-01-16T23:49:50.556Z,97662.46
2019-01-16T23:52:20.590Z,97654.66
2019-01-16T23:54:53.357Z,97662.78
2019-01-16T23:57:39.781Z,97663.91
